createdAt,value
2023-03-22T00:01:28.718Z,12.60
2023-03-22T00:03:56.215Z,12.60
2023-03-22T00:06:24.003Z,12.60
2023-03-22T00:08:53.300Z,12.60
2023-03-22T00:11:24.099Z,12.60
2023-03-22T00:13:52.502Z,12.60
2023-03-22T00:16:21.633Z,12.60
2023-03-22T00:18:48.655Z,12.60
2023-03-22T00:21:17.511Z,12.60
2023-03-22T00:23:45.500Z,12.60
2023-03-22T00:26:14.864Z,12.50
2023-03-22T00:28:43.564Z,12.60
2023-03-22T00:31:11.391Z,12.60
2023-03-22T00:33:38.920Z,12.50
2023-03-22T00:36:09.573Z,12.50
2023-03-22T00:38:44.954Z,12.40
2023-03-22T00:41:20.441Z,12.40
2023-03-22T00:43:49.321Z,12.30
2023-03-22T00:46:19.249Z,12.30
2023-03-22T00:48:47.742Z,12.20
2023-03-22T00:51:15.965Z,12.20
2023-03-22T00:53:43.938Z,12.20
2023-03-22T00:56:15.508Z,12.20
2023-03-22T00:58:46.467Z,12.20
2023-03-22T01:01:14.282Z,12.20
2023-03-22T01:03:43.531Z,12.20
2023-03-22T01:06:13.982Z,12.20
2023-03-22T01:08:41.590Z,12.20
2023-03-22T01:11:09.946Z,12.20
2023-03-22T01:13:37.733Z,12.20
2023-03-22T01:16:07.441Z,12.20
2023-03-22T01:18:35.901Z,12.20
2023-03-22T01:21:03.535Z,12.20
2023-03-22T01:23:30.761Z,12.20
2023-03-22T01:25:58.519Z,12.20
2023-03-22T01:28:27.166Z,12.10
2023-03-22T01:31:00.937Z,12.10
2023-03-22T01:33:27.863Z,12.10
2023-03-22T01:35:55.378Z,12.10
2023-03-22T01:38:22.779Z,12.10
2023-03-22T01:40:57.398Z,12.10
2023-03-22T01:43:25.241Z,12.00
2023-03-22T01:45:54.169Z,12.00
2023-03-22T01:48:34.799Z,12.00
2023-03-22T01:51:10.313Z,12.00
2023-03-22T01:54:12.940Z,11.90
2023-03-22T01:56:42.187Z,11.90
2023-03-22T01:59:15.988Z,11.90
2023-03-22T02:02:03.398Z,11.90
2023-03-22T02:04:39.154Z,11.90
2023-03-22T02:07:15.687Z,11.80
2023-03-22T02:09:46.996Z,11.80
2023-03-22T02:12:40.751Z,11.80
2023-03-22T02:15:42.799Z,11.80
2023-03-22T02:18:46.261Z,11.70
2023-03-22T02:21:21.896Z,11.70
2023-03-22T02:24:35.182Z,11.70
2023-03-22T02:27:18.395Z,11.60
2023-03-22T02:30:25.857Z,11.60
2023-03-22T02:33:24.877Z,11.60
2023-03-22T02:35:57.776Z,11.50
2023-03-22T02:39:01.519Z,11.40
2023-03-22T02:41:38.556Z,11.30
2023-03-22T02:44:26.055Z,11.20
2023-03-22T02:47:07.576Z,11.20
2023-03-22T02:49:41.459Z,11.00
2023-03-22T02:52:19.335Z,11.00
2023-03-22T02:55:09.816Z,11.00
2023-03-22T02:58:02.694Z,11.00
2023-03-22T03:00:32.832Z,10.90
2023-03-22T03:03:12.736Z,10.80
2023-03-22T03:05:55.168Z,10.80
2023-03-22T03:08:25.266Z,10.80
2023-03-22T03:10:53.874Z,10.70
2023-03-22T03:13:21.203Z,10.70
2023-03-22T03:15:57.417Z,10.70
2023-03-22T03:18:40.629Z,10.70
2023-03-22T03:21:52.737Z,10.70
2023-03-22T03:24:57.539Z,10.70
2023-03-22T03:27:37.256Z,10.60
2023-03-22T03:30:19.914Z,10.60
2023-03-22T03:33:18.005Z,10.60
2023-03-22T03:35:53.365Z,10.60
2023-03-22T03:38:27.592Z,10.60
2023-03-22T03:41:12.649Z,10.60
2023-03-22T03:43:41.406Z,10.50
2023-03-22T03:46:09.625Z,10.50
2023-03-22T03:48:53.488Z,10.50
2023-03-22T03:51:28.375Z,10.50
2023-03-22T03:53:57.326Z,10.50
2023-03-22T03:56:56.078Z,10.40
2023-03-22T03:59:32.674Z,10.40
2023-03-22T04:02:13.118Z,10.40
2023-03-22T04:04:45.025Z,10.30
2023-03-22T04:07:18.904Z,10.30
2023-03-22T04:09:49.688Z,10.30
2023-03-22T04:12:22.317Z,10.30
2023-03-22T04:15:12.139Z,10.30
2023-03-22T04:17:41.482Z,10.30
2023-03-22T04:20:12.449Z,10.30
2023-03-22T04:22:41.837Z,10.30
2023-03-22T04:25:13.367Z,10.30
2023-03-22T04:27:51.145Z,10.30
2023-03-22T04:30:20.257Z,10.30
2023-03-22T04:33:07.156Z,10.30
2023-03-22T04:35:56.792Z,10.40
2023-03-22T04:38:29.709Z,10.30
2023-03-22T04:40:57.816Z,10.30
2023-03-22T04:43:35.544Z,10.30
2023-03-22T04:46:10.170Z,10.20
2023-03-22T04:48:43.796Z,10.20
2023-03-22T04:51:11.934Z,10.20
2023-03-22T04:53:47.301Z,10.20
2023-03-22T04:56:15.661Z,10.20
2023-03-22T04:58:45.338Z,10.20
2023-03-22T05:01:16.698Z,10.30
2023-03-22T05:03:47.302Z,10.30
2023-03-22T05:06:16.375Z,10.30
2023-03-22T05:08:57.279Z,10.40
2023-03-22T05:11:27.647Z,10.40
2023-03-22T05:14:30.251Z,10.40
2023-03-22T05:16:57.729Z,10.60
2023-03-22T05:19:24.872Z,10.60
2023-03-22T05:21:58.084Z,10.70
2023-03-22T05:24:36.329Z,10.80
2023-03-22T05:27:04.138Z,10.80
2023-03-22T05:29:36.795Z,10.90
2023-03-22T05:32:11.710Z,10.90
2023-03-22T05:34:41.806Z,11.00
2023-03-22T05:37:21.078Z,11.00
2023-03-22T05:39:51.879Z,10.90
2023-03-22T05:42:19.588Z,10.90
2023-03-22T05:44:46.487Z,11.00
2023-03-22T05:47:13.821Z,11.00
2023-03-22T05:49:55.930Z,11.10
2023-03-22T05:52:24.968Z,11.10
2023-03-22T05:55:08.109Z,11.20
2023-03-22T05:57:41.297Z,11.20
2023-03-22T06:00:17.934Z,11.20
2023-03-22T06:03:15.142Z,11.20
2023-03-22T06:05:59.884Z,11.30
2023-03-22T06:09:15.998Z,11.30
2023-03-22T06:11:52.385Z,11.40
2023-03-22T06:14:33.231Z,11.50
2023-03-22T06:17:24.453Z,11.60
2023-03-22T06:19:55.121Z,11.50
2023-03-22T06:22:23.830Z,11.60
2023-03-22T06:24:52.629Z,11.60
2023-03-22T06:27:29.757Z,11.60
2023-03-22T06:29:56.684Z,11.60
2023-03-22T06:32:27.091Z,11.60
2023-03-22T06:34:56.250Z,11.70
2023-03-22T06:37:25.352Z,11.70
2023-03-22T06:39:53.251Z,11.70
2023-03-22T06:42:22.989Z,11.70
2023-03-22T06:45:01.072Z,11.70
2023-03-22T06:47:31.794Z,11.70
2023-03-22T06:50:01.822Z,11.70
2023-03-22T06:52:48.704Z,11.70
2023-03-22T06:55:16.002Z,11.70
2023-03-22T06:57:42.901Z,11.70
2023-03-22T07:00:10.994Z,11.70
2023-03-22T07:02:37.859Z,11.80
2023-03-22T07:05:16.459Z,11.80
2023-03-22T07:07:43.832Z,11.80
2023-03-22T07:10:10.809Z,11.90
2023-03-22T07:12:38.520Z,11.80
2023-03-22T07:15:11.076Z,11.90
2023-03-22T07:18:04.535Z,11.90
2023-03-22T07:20:38.433Z,11.90
2023-03-22T07:23:05.682Z,12.00
2023-03-22T07:25:39.037Z,12.10
2023-03-22T07:28:22.437Z,12.20
2023-03-22T07:30:49.420Z,12.20
2023-03-22T07:33:19.232Z,12.30
2023-03-22T07:35:46.414Z,12.30
2023-03-22T07:38:13.330Z,12.40
2023-03-22T07:40:41.464Z,12.30
2023-03-22T07:43:11.971Z,12.40
2023-03-22T07:46:07.985Z,12.30
2023-03-22T07:48:53.264Z,12.30
2023-03-22T07:51:38.792Z,12.30
2023-03-22T07:54:07.701Z,12.30
2023-03-22T07:56:35.238Z,12.20
2023-03-22T07:59:02.237Z,12.30
2023-03-22T08:01:29.396Z,12.30
2023-03-22T08:04:05.247Z,12.40
2023-03-22T08:06:46.621Z,12.40
2023-03-22T08:09:13.571Z,12.40
2023-03-22T08:11:41.172Z,12.40
2023-03-22T08:14:09.292Z,12.50
2023-03-22T08:16:38.445Z,12.50
2023-03-22T08:19:06.059Z,12.50
2023-03-22T08:21:36.525Z,12.50
2023-03-22T08:24:06.301Z,12.50
2023-03-22T08:26:54.722Z,12.50
2023-03-22T08:29:32.121Z,12.50
2023-03-22T08:32:02.183Z,12.50
2023-03-22T08:34:31.206Z,12.50
2023-03-22T08:36:58.092Z,12.50
2023-03-22T08:39:26.113Z,12.50
2023-03-22T08:42:05.501Z,12.50
2023-03-22T08:44:32.625Z,12.50
2023-03-22T08:47:04.534Z,12.40
2023-03-22T08:49:32.359Z,12.50
2023-03-22T08:52:07.313Z,12.50
2023-03-22T08:54:42.776Z,12.50
2023-03-22T08:57:50.296Z,12.50
2023-03-22T09:00:25.140Z,12.50
2023-03-22T09:03:19.464Z,12.50
2023-03-22T09:05:46.540Z,12.60
2023-03-22T09:08:19.088Z,12.60
2023-03-22T09:10:52.498Z,12.70
2023-03-22T09:13:21.898Z,12.70
2023-03-22T09:15:54.695Z,12.70
2023-03-22T09:18:27.696Z,12.80
2023-03-22T09:20:58.549Z,12.90
2023-03-22T09:23:32.160Z,12.90
2023-03-22T09:26:02.113Z,12.90
2023-03-22T09:28:30.908Z,13.00
2023-03-22T09:31:07.273Z,13.10
2023-03-22T09:33:38.498Z,13.10
2023-03-22T09:36:11.887Z,13.10
2023-03-22T09:39:06.541Z,13.00
2023-03-22T09:41:51.608Z,12.90
2023-03-22T09:44:26.986Z,12.90
2023-03-22T09:46:59.856Z,13.00
2023-03-22T09:49:52.647Z,13.00
2023-03-22T09:52:20.721Z,13.10
2023-03-22T09:54:47.705Z,13.10
2023-03-22T09:57:28.997Z,13.10
2023-03-22T10:00:20.887Z,13.10
2023-03-22T10:03:24.959Z,13.00
2023-03-22T10:06:22.957Z,13.00
2023-03-22T10:08:58.688Z,13.00
2023-03-22T10:12:14.248Z,13.00
2023-03-22T10:15:04.578Z,13.20
2023-03-22T10:17:32.281Z,13.60
2023-03-22T10:20:27.102Z,13.80
2023-03-22T10:22:58.160Z,14.00
2023-03-22T10:25:39.799Z,14.10
2023-03-22T10:28:31.412Z,13.90
2023-03-22T10:30:59.036Z,13.80
2023-03-22T10:33:50.512Z,13.70
2023-03-22T10:36:22.797Z,13.50
2023-03-22T10:38:57.621Z,13.40
2023-03-22T10:41:28.619Z,13.30
2023-03-22T10:44:00.692Z,13.40
2023-03-22T10:46:35.913Z,13.40
2023-03-22T10:49:06.271Z,13.50
2023-03-22T10:51:47.720Z,13.50
2023-03-22T10:54:19.082Z,13.60
2023-03-22T10:56:46.289Z,13.70
2023-03-22T10:59:51.133Z,13.70
2023-03-22T11:02:26.405Z,13.70
2023-03-22T11:05:04.357Z,13.70
2023-03-22T11:07:42.646Z,13.70
2023-03-22T11:10:09.609Z,13.70
2023-03-22T11:13:18.901Z,13.70
2023-03-22T11:16:02.230Z,13.60
2023-03-22T11:18:33.451Z,13.70
2023-03-22T11:21:07.890Z,13.60
2023-03-22T11:23:38.589Z,13.70
2023-03-22T11:26:13.320Z,13.60
2023-03-22T11:28:50.287Z,13.60
2023-03-22T11:31:21.143Z,13.50
2023-03-22T11:34:01.160Z,13.50
2023-03-22T11:36:29.204Z,13.50
2023-03-22T11:39:06.051Z,13.50
2023-03-22T11:41:39.241Z,13.50
2023-03-22T11:44:13.234Z,13.60
2023-03-22T11:46:49.680Z,13.60
2023-03-22T11:49:18.337Z,13.40
2023-03-22T11:51:46.218Z,13.30
2023-03-22T11:54:35.586Z,13.30
2023-03-22T11:57:15.562Z,13.20
2023-03-22T12:00:15.085Z,13.30
2023-03-22T12:02:51.658Z,13.30
2023-03-22T12:05:27.189Z,13.30
2023-03-22T12:08:17.908Z,13.30
2023-03-22T12:10:53.607Z,13.30
2023-03-22T12:13:32.942Z,13.40
2023-03-22T12:16:05.925Z,13.30
2023-03-22T12:18:44.570Z,13.40
2023-03-22T12:21:11.971Z,13.40
2023-03-22T12:23:39.258Z,13.40
2023-03-22T12:26:14.407Z,13.40
2023-03-22T12:28:59.044Z,13.40
2023-03-22T12:32:11.816Z,13.30
2023-03-22T12:34:51.084Z,13.30
2023-03-22T12:37:42.320Z,13.30
2023-03-22T12:40:38.429Z,13.30
2023-03-22T12:43:21.747Z,13.40
2023-03-22T12:45:59.424Z,13.30
2023-03-22T12:48:50.528Z,13.40
2023-03-22T12:51:17.688Z,13.40
2023-03-22T12:53:53.995Z,13.40
2023-03-22T12:56:29.594Z,13.40
2023-03-22T12:59:04.536Z,13.40
2023-03-22T13:02:01.061Z,13.40
2023-03-22T13:04:37.023Z,13.50
2023-03-22T13:07:31.066Z,13.50
2023-03-22T13:10:00.195Z,13.50
2023-03-22T13:12:31.893Z,13.60
2023-03-22T13:15:04.273Z,13.60
2023-03-22T13:17:33.412Z,13.60
2023-03-22T13:20:06.754Z,13.60
2023-03-22T13:22:37.259Z,13.60
2023-03-22T13:25:12.310Z,13.60
2023-03-22T13:27:42.134Z,13.70
2023-03-22T13:30:21.744Z,13.70
2023-03-22T13:32:54.609Z,13.70
2023-03-22T13:35:41.942Z,13.80
2023-03-22T13:38:20.151Z,13.70
2023-03-22T13:41:03.924Z,13.70
2023-03-22T13:43:44.587Z,13.80
2023-03-22T13:46:44.658Z,13.90
2023-03-22T13:49:42.580Z,13.90
2023-03-22T13:52:24.134Z,14.00
2023-03-22T13:54:54.165Z,14.00
2023-03-22T13:57:56.928Z,14.10
2023-03-22T14:00:30.220Z,14.10
2023-03-22T14:03:04.117Z,14.00
2023-03-22T14:05:36.476Z,14.00
2023-03-22T14:08:04.363Z,13.90
2023-03-22T14:10:43.375Z,13.90
2023-03-22T14:13:43.638Z,14.00
2023-03-22T14:16:35.683Z,14.00
2023-03-22T14:19:07.139Z,14.00
2023-03-22T14:21:41.376Z,14.00
